sensor_id;sensor_type;location;lat;lon;timestamp;pressure;altitude;pressure_sealevel;temperature;humidity
73171;BME280;61381;50.118;19.962;2022-11-15T00:01:48;98909.13;;;3.31;100.00
73171;BME280;61381;50.118;19.962;2022-11-15T00:06:49;98910.94;;;3.30;100.00
73171;BME280;61381;50.118;19.962;2022-11-15T00:11:52;98902.63;;;3.15;100.00
73171;BME280;61381;50.118;19.962;2022-11-15T00:16:53;98894.94;;;2.95;100.00
73171;BME280;61381;50.118;19.962;2022-11-15T00:21:53;98893.69;;;2.97;100.00
73171;BME280;61381;50.118;19.962;2022-11-15T00:26:56;98883.81;;;3.04;100.00
73171;BME280;61381;50.118;19.962;2022-11-15T00:31:57;98886.34;;;2.99;100.00
73171;BME280;61381;50.118;19.962;2022-11-15T00:36:58;98877.56;;;2.87;100.00
73171;BME280;61381;50.118;19.962;2022-11-15T00:42:00;98876.09;;;2.91;100.00
73171;BME280;61381;50.118;19.962;2022-11-15T00:47:01;98857.06;;;2.82;100.00
73171;BME280;61381;50.118;19.962;2022-11-15T00:52:03;98863.97;;;2.83;100.00
73171;BME280;61381;50.118;19.962;2022-11-15T00:57:05;98864.44;;;2.92;100.00
73171;BME280;61381;50.118;19.962;2022-11-15T01:02:06;98866.97;;;2.87;100.00
73171;BME280;61381;50.118;19.962;2022-11-15T01:07:07;98863.19;;;2.95;100.00
73171;BME280;61381;50.118;19.962;2022-11-15T01:12:09;98863.75;;;2.85;100.00
73171;BME280;61381;50.118;19.962;2022-11-15T01:17:10;98857.28;;;2.81;100.00
73171;BME280;61381;50.118;19.962;2022-11-15T01:22:11;98860.63;;;2.58;100.00
73171;BME280;61381;50.118;19.962;2022-11-15T01:27:13;98852.75;;;2.51;100.00
73171;BME280;61381;50.118;19.962;2022-11-15T01:32:14;98851.00;;;2.63;100.00
73171;BME280;61381;50.118;19.962;2022-11-15T01:37:16;98843.72;;;2.59;100.00
73171;BME280;61381;50.118;19.962;2022-11-15T01:42:18;98839.09;;;2.54;100.00
73171;BME280;61381;50.118;19.962;2022-11-15T01:47:21;98831.19;;;2.36;100.00
73171;BME280;61381;50.118;19.962;2022-11-15T01:52:26;98845.72;;;2.45;100.00
73171;BME280;61381;50.118;19.962;2022-11-15T01:57:30;98834.44;;;2.38;100.00
73171;BME280;61381;50.118;19.962;2022-11-15T02:02:32;98828.16;;;2.50;100.00
73171;BME280;61381;50.118;19.962;2022-11-15T02:07:35;98827.63;;;2.60;100.00
73171;BME280;61381;50.118;19.962;2022-11-15T02:12:38;98815.75;;;2.51;100.00
73171;BME280;61381;50.118;19.962;2022-11-15T02:17:54;98809.00;;;2.55;100.00
73171;BME280;61381;50.118;19.962;2022-11-15T02:23:21;98807.06;;;2.62;100.00
73171;BME280;61381;50.118;19.962;2022-11-15T02:28:45;98802.13;;;2.66;100.00
73171;BME280;61381;50.118;19.962;2022-11-15T02:33:53;98801.16;;;2.79;100.00
73171;BME280;61381;50.118;19.962;2022-11-15T02:39:03;98799.09;;;2.81;100.00
73171;BME280;61381;50.118;19.962;2022-11-15T02:44:09;98798.53;;;2.60;100.00
73171;BME280;61381;50.118;19.962;2022-11-15T02:49:15;98797.50;;;2.61;100.00
73171;BME280;61381;50.118;19.962;2022-11-15T02:54:20;98780.75;;;2.37;100.00
73171;BME280;61381;50.118;19.962;2022-11-15T02:59:49;98788.63;;;2.56;100.00
73171;BME280;61381;50.118;19.962;2022-11-15T03:04:59;98777.09;;;2.68;100.00
73171;BME280;61381;50.118;19.962;2022-11-15T03:10:06;98775.84;;;2.71;100.00
73171;BME280;61381;50.118;19.962;2022-11-15T03:15:15;98772.97;;;2.73;100.00
73171;BME280;61381;50.118;19.962;2022-11-15T03:20:20;98765.72;;;2.80;100.00
73171;BME280;61381;50.118;19.962;2022-11-15T03:25:24;98762.50;;;2.78;100.00
73171;BME280;61381;50.118;19.962;2022-11-15T03:30:26;98750.75;;;2.74;100.00
73171;BME280;61381;50.118;19.962;2022-11-15T03:35:32;98750.28;;;2.77;100.00
73171;BME280;61381;50.118;19.962;2022-11-15T03:40:36;98739.38;;;2.73;100.00
73171;BME280;61381;50.118;19.962;2022-11-15T03:45:42;98736.03;;;2.78;100.00
73171;BME280;61381;50.118;19.962;2022-11-15T03:50:47;98730.88;;;2.83;100.00
73171;BME280;61381;50.118;19.962;2022-11-15T03:55:48;98728.72;;;3.03;100.00
73171;BME280;61381;50.118;19.962;2022-11-15T04:00:49;98716.06;;;3.06;100.00
73171;BME280;61381;50.118;19.962;2022-11-15T04:05:51;98713.06;;;3.14;100.00
73171;BME280;61381;50.118;19.962;2022-11-15T04:10:52;98703.75;;;3.23;100.00
73171;BME280;61381;50.118;19.962;2022-11-15T04:15:53;98688.22;;;3.15;100.00
73171;BME280;61381;50.118;19.962;2022-11-15T04:20:55;98690.41;;;3.06;100.00
73171;BME280;61381;50.118;19.962;2022-11-15T04:25:59;98671.06;;;2.82;100.00
73171;BME280;61381;50.118;19.962;2022-11-15T04:31:01;98678.78;;;2.95;100.00
73171;BME280;61381;50.118;19.962;2022-11-15T04:36:03;98670.25;;;2.81;100.00
73171;BME280;61381;50.118;19.962;2022-11-15T04:41:04;98665.19;;;2.80;100.00
73171;BME280;61381;50.118;19.962;2022-11-15T04:46:06;98644.84;;;2.68;100.00
73171;BME280;61381;50.118;19.962;2022-11-15T04:51:08;98665.75;;;2.70;100.00
73171;BME280;61381;50.118;19.962;2022-11-15T04:56:09;98660.47;;;2.70;100.00
73171;BME280;61381;50.118;19.962;2022-11-15T05:01:11;98656.44;;;2.67;100.00
73171;BME280;61381;50.118;19.962;2022-11-15T05:06:13;98652.38;;;2.41;100.00
73171;BME280;61381;50.118;19.962;2022-11-15T05:11:14;98640.31;;;2.45;100.00
73171;BME280;61381;50.118;19.962;2022-11-15T05:16:15;98636.84;;;2.45;100.00
73171;BME280;61381;50.118;19.962;2022-11-15T05:21:17;98640.66;;;2.49;100.00
73171;BME280;61381;50.118;19.962;2022-11-15T05:26:18;98636.19;;;2.38;100.00
73171;BME280;61381;50.118;19.962;2022-11-15T05:31:19;98622.94;;;2.26;100.00
73171;BME280;61381;50.118;19.962;2022-11-15T05:36:27;98627.16;;;2.15;100.00
73171;BME280;61381;50.118;19.962;2022-11-15T05:41:32;98626.53;;;2.01;100.00
73171;BME280;61381;50.118;19.962;2022-11-15T05:46:36;98638.06;;;1.88;100.00
73171;BME280;61381;50.118;19.962;2022-11-15T05:51:40;98630.69;;;2.09;100.00
73171;BME280;61381;50.118;19.962;2022-11-15T05:56:43;98623.34;;;2.11;100.00
73171;BME280;61381;50.118;19.962;2022-11-15T06:01:45;98627.94;;;2.16;100.00
73171;BME280;61381;50.118;19.962;2022-11-15T06:06:47;98622.28;;;2.00;100.00
73171;BME280;61381;50.118;19.962;2022-11-15T06:11:48;98615.63;;;1.98;100.00
73171;BME280;61381;50.118;19.962;2022-11-15T06:16:49;98604.84;;;2.11;100.00
73171;BME280;61381;50.118;19.962;2022-11-15T06:21:51;98610.81;;;2.06;100.00
73171;BME280;61381;50.118;19.962;2022-11-15T06:26:52;98611.03;;;2.05;100.00
73171;BME280;61381;50.118;19.962;2022-11-15T06:31:53;98613.00;;;2.09;100.00
73171;BME280;61381;50.118;19.962;2022-11-15T06:36:56;98610.72;;;2.13;100.00
73171;BME280;61381;50.118;19.962;2022-11-15T06:41:57;98605.28;;;2.08;100.00
73171;BME280;61381;50.118;19.962;2022-11-15T06:46:57;98607.09;;;1.95;100.00
73171;BME280;61381;50.118;19.962;2022-11-15T06:52:00;98617.47;;;2.09;100.00
73171;BME280;61381;50.118;19.962;2022-11-15T06:57:01;98618.78;;;2.18;100.00
73171;BME280;61381;50.118;19.962;2022-11-15T07:02:02;98616.38;;;2.28;100.00
73171;BME280;61381;50.118;19.962;2022-11-15T07:07:04;98607.66;;;2.40;100.00
73171;BME280;61381;50.118;19.962;2022-11-15T07:12:06;98624.69;;;2.44;100.00
73171;BME280;61381;50.118;19.962;2022-11-15T07:17:06;98627.03;;;2.76;100.00
73171;BME280;61381;50.118;19.962;2022-11-15T07:22:09;98617.59;;;2.68;100.00
73171;BME280;61381;50.118;19.962;2022-11-15T07:27:10;98619.44;;;2.79;100.00
73171;BME280;61381;50.118;19.962;2022-11-15T07:32:10;98609.28;;;2.64;100.00
73171;BME280;61381;50.118;19.962;2022-11-15T07:37:13;98607.63;;;2.28;100.00
73171;BME280;61381;50.118;19.962;2022-11-15T07:42:14;98585.50;;;2.41;100.00
73171;BME280;61381;50.118;19.962;2022-11-15T07:47:15;98594.69;;;2.62;100.00
73171;BME280;61381;50.118;19.962;2022-11-15T07:52:17;98601.72;;;2.92;100.00
73171;BME280;61381;50.118;19.962;2022-11-15T07:57:18;98597.25;;;3.45;100.00
73171;BME280;61381;50.118;19.962;2022-11-15T08:02:19;98586.72;;;3.62;100.00
73171;BME280;61381;50.118;19.962;2022-11-15T08:07:21;98589.59;;;3.60;100.00
73171;BME280;61381;50.118;19.962;2022-11-15T08:12:22;98570.47;;;3.58;100.00
73171;BME280;61381;50.118;19.962;2022-11-15T08:17:23;98575.00;;;4.03;100.00
73171;BME280;61381;50.118;19.962;2022-11-15T08:22:26;98564.81;;;3.66;100.00
73171;BME280;61381;50.118;19.962;2022-11-15T08:27:27;98573.06;;;3.99;100.00
73171;BME280;61381;50.118;19.962;2022-11-15T08:32:28;98570.03;;;4.24;100.00
73171;BME280;61381;50.118;19.962;2022-11-15T08:37:30;98568.00;;;4.48;100.00
73171;BME280;61381;50.118;19.962;2022-11-15T08:42:31;98572.66;;;4.41;100.00
73171;BME280;61381;50.118;19.962;2022-11-15T08:47:32;98558.06;;;4.38;100.00
73171;BME280;61381;50.118;19.962;2022-11-15T08:52:35;98569.09;;;4.86;100.00
73171;BME280;61381;50.118;19.962;2022-11-15T08:57:36;98573.19;;;4.94;100.00
73171;BME280;61381;50.118;19.962;2022-11-15T09:02:37;98562.19;;;5.29;100.00
73171;BME280;61381;50.118;19.962;2022-11-15T09:07:40;98563.13;;;5.40;100.00
73171;BME280;61381;50.118;19.962;2022-11-15T09:12:41;98553.03;;;5.64;100.00
73171;BME280;61381;50.118;19.962;2022-11-15T09:17:42;98546.81;;;5.53;100.00
73171;BME280;61381;50.118;19.962;2022-11-15T09:22:44;98549.00;;;5.34;100.00
73171;BME280;61381;50.118;19.962;2022-11-15T09:27:45;98539.47;;;5.39;100.00
73171;BME280;61381;50.118;19.962;2022-11-15T09:32:46;98534.31;;;5.54;100.00
73171;BME280;61381;50.118;19.962;2022-11-15T09:37:48;98522.94;;;5.59;100.00
73171;BME280;61381;50.118;19.962;2022-11-15T09:42:58;98534.16;;;5.39;100.00
73171;BME280;61381;50.118;19.962;2022-11-15T09:48:19;98532.06;;;5.41;100.00
73171;BME280;61381;50.118;19.962;2022-11-15T09:53:32;98527.88;;;5.77;100.00
73171;BME280;61381;50.118;19.962;2022-11-15T09:58:38;98515.94;;;6.02;100.00
73171;BME280;61381;50.118;19.962;2022-11-15T10:03:41;98505.09;;;6.14;100.00
73171;BME280;61381;50.118;19.962;2022-11-15T10:08:51;98498.25;;;6.23;100.00
73171;BME280;61381;50.118;19.962;2022-11-15T10:13:57;98485.09;;;6.43;100.00
73171;BME280;61381;50.118;19.962;2022-11-15T10:19:06;98483.44;;;6.85;100.00
73171;BME280;61381;50.118;19.962;2022-11-15T10:24:12;98486.81;;;6.70;100.00
73171;BME280;61381;50.118;19.962;2022-11-15T10:29:18;98479.53;;;6.45;100.00
73171;BME280;61381;50.118;19.962;2022-11-15T10:34:20;98467.59;;;6.58;100.00
73171;BME280;61381;50.118;19.962;2022-11-15T10:39:23;98450.91;;;6.68;100.00
73171;BME280;61381;50.118;19.962;2022-11-15T10:44:27;98449.63;;;6.86;100.00
73171;BME280;61381;50.118;19.962;2022-11-15T10:49:30;98439.28;;;7.00;100.00
73171;BME280;61381;50.118;19.962;2022-11-15T10:54:37;98431.91;;;7.27;100.00
73171;BME280;61381;50.118;19.962;2022-11-15T10:59:43;98419.13;;;7.45;100.00
73171;BME280;61381;50.118;19.962;2022-11-15T11:04:49;98410.06;;;7.51;99.99
73171;BME280;61381;50.118;19.962;2022-11-15T11:09:58;98402.06;;;7.66;98.78
73171;BME280;61381;50.118;19.962;2022-11-15T11:15:05;98402.59;;;7.89;97.67
73171;BME280;61381;50.118;19.962;2022-11-15T11:20:17;98402.88;;;7.98;97.81
73171;BME280;61381;50.118;19.962;2022-11-15T11:25:30;98378.34;;;7.91;96.35
73171;BME280;61381;50.118;19.962;2022-11-15T11:30:41;98389.53;;;7.88;98.70
73171;BME280;61381;50.118;19.962;2022-11-15T11:35:55;98384.69;;;8.05;98.77
73171;BME280;61381;50.118;19.962;2022-11-15T11:41:10;98371.31;;;8.26;98.02
73171;BME280;61381;50.118;19.962;2022-11-15T11:46:36;98361.94;;;8.49;96.04
73171;BME280;61381;50.118;19.962;2022-11-15T11:51:41;98359.97;;;8.70;96.86
73171;BME280;61381;50.118;19.962;2022-11-15T11:56:45;98352.06;;;8.94;95.87
73171;BME280;61381;50.118;19.962;2022-11-15T12:01:46;98335.75;;;9.01;94.78
73171;BME280;61381;50.118;19.962;2022-11-15T12:06:54;98346.81;;;9.23;93.27
73171;BME280;61381;50.118;19.962;2022-11-15T12:12:04;98339.53;;;9.29;91.90
73171;BME280;61381;50.118;19.962;2022-11-15T12:17:08;98318.44;;;9.27;92.12
73171;BME280;61381;50.118;19.962;2022-11-15T12:22:13;98339.38;;;9.50;91.98
73171;BME280;61381;50.118;19.962;2022-11-15T12:27:21;98335.59;;;9.21;92.51
73171;BME280;61381;50.118;19.962;2022-11-15T12:32:28;98314.09;;;8.97;93.74
73171;BME280;61381;50.118;19.962;2022-11-15T12:37:51;98319.16;;;8.99;94.29
73171;BME280;61381;50.118;19.962;2022-11-15T12:48:54;98312.78;;;8.50;97.02
73171;BME280;61381;50.118;19.962;2022-11-15T12:53:55;98317.59;;;8.37;98.25
73171;BME280;61381;50.118;19.962;2022-11-15T12:58:57;98300.09;;;8.21;99.70
73171;BME280;61381;50.118;19.962;2022-11-15T13:04:13;98282.56;;;7.99;100.00
73171;BME280;61381;50.118;19.962;2022-11-15T13:09:52;98294.31;;;7.88;100.00
73171;BME280;61381;50.118;19.962;2022-11-15T13:14:53;98278.91;;;7.70;100.00
73171;BME280;61381;50.118;19.962;2022-11-15T13:19:59;98286.34;;;7.83;100.00
73171;BME280;61381;50.118;19.962;2022-11-15T13:25:01;98277.47;;;8.03;100.00
73171;BME280;61381;50.118;19.962;2022-11-15T13:30:03;98283.38;;;7.95;100.00
73171;BME280;61381;50.118;19.962;2022-11-15T13:35:06;98279.59;;;8.06;100.00
73171;BME280;61381;50.118;19.962;2022-11-15T13:40:29;98271.00;;;8.14;100.00
73171;BME280;61381;50.118;19.962;2022-11-15T13:45:30;98253.44;;;8.13;100.00
73171;BME280;61381;50.118;19.962;2022-11-15T13:50:35;98249.63;;;8.25;100.00
73171;BME280;61381;50.118;19.962;2022-11-15T13:55:41;98241.06;;;8.28;100.00
73171;BME280;61381;50.118;19.962;2022-11-15T14:00:45;98241.84;;;8.28;100.00
73171;BME280;61381;50.118;19.962;2022-11-15T14:06:06;98241.38;;;8.21;100.00
73171;BME280;61381;50.118;19.962;2022-11-15T14:11:13;98239.25;;;8.18;100.00
73171;BME280;61381;50.118;19.962;2022-11-15T14:16:17;98231.28;;;8.13;100.00
73171;BME280;61381;50.118;19.962;2022-11-15T14:21:20;98237.72;;;8.01;100.00
73171;BME280;61381;50.118;19.962;2022-11-15T14:26:29;98222.16;;;8.19;100.00
73171;BME280;61381;50.118;19.962;2022-11-15T14:31:30;98219.53;;;8.14;100.00
73171;BME280;61381;50.118;19.962;2022-11-15T14:36:33;98215.88;;;7.99;100.00
73171;BME280;61381;50.118;19.962;2022-11-15T14:41:35;98217.53;;;7.85;100.00
73171;BME280;61381;50.118;19.962;2022-11-15T14:46:36;98215.44;;;7.72;100.00
73171;BME280;61381;50.118;19.962;2022-11-15T14:51:39;98205.03;;;7.70;100.00
73171;BME280;61381;50.118;19.962;2022-11-15T14:56:40;98205.38;;;7.58;100.00
73171;BME280;61381;50.118;19.962;2022-11-15T15:01:41;98195.25;;;7.45;100.00
73171;BME280;61381;50.118;19.962;2022-11-15T15:06:43;98193.91;;;7.53;100.00
73171;BME280;61381;50.118;19.962;2022-11-15T15:11:44;98193.13;;;7.52;100.00
73171;BME280;61381;50.118;19.962;2022-11-15T15:16:45;98189.41;;;7.48;100.00
73171;BME280;61381;50.118;19.962;2022-11-15T15:21:47;98187.56;;;7.38;100.00
73171;BME280;61381;50.118;19.962;2022-11-15T15:26:48;98191.53;;;7.46;100.00
73171;BME280;61381;50.118;19.962;2022-11-15T15:31:57;98185.66;;;7.49;100.00
73171;BME280;61381;50.118;19.962;2022-11-15T15:37:21;98180.59;;;7.42;100.00
73171;BME280;61381;50.118;19.962;2022-11-15T15:42:23;98175.31;;;7.32;100.00
73171;BME280;61381;50.118;19.962;2022-11-15T15:47:25;98176.66;;;7.29;100.00
73171;BME280;61381;50.118;19.962;2022-11-15T15:52:27;98171.59;;;7.23;100.00
73171;BME280;61381;50.118;19.962;2022-11-15T15:57:30;98178.72;;;7.58;100.00
73171;BME280;61381;50.118;19.962;2022-11-15T16:02:39;98177.66;;;7.54;100.00
73171;BME280;61381;50.118;19.962;2022-11-15T16:07:45;98173.69;;;7.41;100.00
73171;BME280;61381;50.118;19.962;2022-11-15T16:12:46;98172.13;;;7.25;100.00
73171;BME280;61381;50.118;19.962;2022-11-15T16:17:50;98158.03;;;7.19;100.00
73171;BME280;61381;50.118;19.962;2022-11-15T16:22:52;98157.75;;;7.26;100.00
73171;BME280;61381;50.118;19.962;2022-11-15T16:27:53;98153.78;;;7.13;100.00
73171;BME280;61381;50.118;19.962;2022-11-15T16:32:54;98164.94;;;7.15;100.00
73171;BME280;61381;50.118;19.962;2022-11-15T16:37:56;98157.50;;;7.17;100.00
73171;BME280;61381;50.118;19.962;2022-11-15T16:42:58;98150.31;;;7.12;100.00
73171;BME280;61381;50.118;19.962;2022-11-15T16:47:59;98148.69;;;7.22;100.00
73171;BME280;61381;50.118;19.962;2022-11-15T16:53:01;98143.38;;;7.11;100.00
73171;BME280;61381;50.118;19.962;2022-11-15T16:58:02;98136.22;;;6.96;100.00
73171;BME280;61381;50.118;19.962;2022-11-15T17:03:03;98140.22;;;7.09;100.00
73171;BME280;61381;50.118;19.962;2022-11-15T17:08:05;98137.00;;;7.12;100.00
73171;BME280;61381;50.118;19.962;2022-11-15T17:13:07;98132.19;;;7.14;100.00
73171;BME280;61381;50.118;19.962;2022-11-15T17:18:10;98118.09;;;7.14;100.00
73171;BME280;61381;50.118;19.962;2022-11-15T17:23:13;98124.72;;;7.17;100.00
73171;BME280;61381;50.118;19.962;2022-11-15T17:28:14;98121.72;;;7.49;100.00
73171;BME280;61381;50.118;19.962;2022-11-15T17:33:15;98112.94;;;7.33;100.00
73171;BME280;61381;50.118;19.962;2022-11-15T17:38:17;98107.41;;;7.19;100.00
73171;BME280;61381;50.118;19.962;2022-11-15T17:43:18;98106.41;;;7.05;100.00
73171;BME280;61381;50.118;19.962;2022-11-15T17:48:19;98106.66;;;6.98;100.00
73171;BME280;61381;50.118;19.962;2022-11-15T17:53:21;98101.34;;;6.98;100.00
73171;BME280;61381;50.118;19.962;2022-11-15T17:58:22;98092.31;;;6.94;100.00
73171;BME280;61381;50.118;19.962;2022-11-15T18:03:23;98094.44;;;6.97;100.00
73171;BME280;61381;50.118;19.962;2022-11-15T18:08:25;98083.47;;;7.09;100.00
73171;BME280;61381;50.118;19.962;2022-11-15T18:13:26;98072.28;;;7.07;100.00
73171;BME280;61381;50.118;19.962;2022-11-15T18:18:27;98064.06;;;6.98;100.00
73171;BME280;61381;50.118;19.962;2022-11-15T18:23:30;98063.78;;;7.05;100.00
73171;BME280;61381;50.118;19.962;2022-11-15T18:28:32;98066.16;;;7.01;100.00
73171;BME280;61381;50.118;19.962;2022-11-15T18:33:33;98065.13;;;6.92;100.00
73171;BME280;61381;50.118;19.962;2022-11-15T18:38:35;98065.19;;;6.82;100.00
73171;BME280;61381;50.118;19.962;2022-11-15T18:43:37;98056.16;;;6.72;100.00
73171;BME280;61381;50.118;19.962;2022-11-15T18:48:40;98061.47;;;6.67;100.00
73171;BME280;61381;50.118;19.962;2022-11-15T18:53:43;98051.91;;;6.66;100.00
73171;BME280;61381;50.118;19.962;2022-11-15T18:58:46;98041.75;;;6.73;100.00
73171;BME280;61381;50.118;19.962;2022-11-15T19:03:48;98042.00;;;6.82;100.00
73171;BME280;61381;50.118;19.962;2022-11-15T19:08:53;98047.59;;;6.81;100.00
73171;BME280;61381;50.118;19.962;2022-11-15T19:13:56;98025.78;;;6.78;100.00
73171;BME280;61381;50.118;19.962;2022-11-15T19:18:58;98026.81;;;6.83;100.00
73171;BME280;61381;50.118;19.962;2022-11-15T19:24:01;98047.91;;;6.74;100.00
73171;BME280;61381;50.118;19.962;2022-11-15T19:29:03;98038.06;;;6.69;100.00
73171;BME280;61381;50.118;19.962;2022-11-15T19:34:05;98026.06;;;6.77;100.00
73171;BME280;61381;50.118;19.962;2022-11-15T19:39:09;98029.53;;;6.67;100.00
73171;BME280;61381;50.118;19.962;2022-11-15T19:44:11;98014.13;;;6.59;100.00
73171;BME280;61381;50.118;19.962;2022-11-15T19:49:13;98023.97;;;6.58;100.00
73171;BME280;61381;50.118;19.962;2022-11-15T19:54:15;98014.66;;;6.56;100.00
73171;BME280;61381;50.118;19.962;2022-11-15T19:59:18;98007.72;;;6.55;100.00
73171;BME280;61381;50.118;19.962;2022-11-15T20:04:19;98000.53;;;6.60;100.00
73171;BME280;61381;50.118;19.962;2022-11-15T20:09:21;98002.16;;;6.51;100.00
73171;BME280;61381;50.118;19.962;2022-11-15T20:14:22;98003.75;;;6.47;100.00
73171;BME280;61381;50.118;19.962;2022-11-15T20:19:23;98004.84;;;6.31;100.00
73171;BME280;61381;50.118;19.962;2022-11-15T20:24:33;97985.19;;;6.16;100.00
73171;BME280;61381;50.118;19.962;2022-11-15T20:29:34;98001.41;;;6.15;100.00
73171;BME280;61381;50.118;19.962;2022-11-15T20:34:35;97993.16;;;6.21;100.00
73171;BME280;61381;50.118;19.962;2022-11-15T20:39:37;97984.09;;;6.28;100.00
73171;BME280;61381;50.118;19.962;2022-11-15T20:44:38;97991.00;;;6.34;100.00
73171;BME280;61381;50.118;19.962;2022-11-15T20:49:39;97987.81;;;6.32;100.00
73171;BME280;61381;50.118;19.962;2022-11-15T20:54:42;97984.59;;;6.40;100.00
73171;BME280;61381;50.118;19.962;2022-11-15T20:59:43;97958.81;;;6.40;100.00
73171;BME280;61381;50.118;19.962;2022-11-15T21:04:44;97962.81;;;6.38;100.00
73171;BME280;61381;50.118;19.962;2022-11-15T21:09:46;97959.38;;;6.37;100.00
73171;BME280;61381;50.118;19.962;2022-11-15T21:14:47;97966.53;;;6.42;100.00
73171;BME280;61381;50.118;19.962;2022-11-15T21:19:48;97957.72;;;6.41;100.00
73171;BME280;61381;50.118;19.962;2022-11-15T21:24:52;97952.94;;;6.49;100.00
73171;BME280;61381;50.118;19.962;2022-11-15T21:29:53;97944.72;;;6.45;100.00
73171;BME280;61381;50.118;19.962;2022-11-15T21:34:54;97933.28;;;6.39;100.00
73171;BME280;61381;50.118;19.962;2022-11-15T21:40:00;97931.16;;;6.36;100.00
73171;BME280;61381;50.118;19.962;2022-11-15T21:45:06;97929.53;;;6.46;100.00
73171;BME280;61381;50.118;19.962;2022-11-15T21:50:07;97918.09;;;6.45;100.00
73171;BME280;61381;50.118;19.962;2022-11-15T21:55:10;97918.88;;;6.46;100.00
73171;BME280;61381;50.118;19.962;2022-11-15T22:00:12;97909.81;;;6.52;100.00
73171;BME280;61381;50.118;19.962;2022-11-15T22:05:13;97903.44;;;6.53;100.00
73171;BME280;61381;50.118;19.962;2022-11-15T22:10:16;97889.56;;;6.61;100.00
73171;BME280;61381;50.118;19.962;2022-11-15T22:15:17;97894.88;;;6.66;100.00
73171;BME280;61381;50.118;19.962;2022-11-15T22:20:18;97891.41;;;6.71;100.00
73171;BME280;61381;50.118;19.962;2022-11-15T22:25:21;97885.53;;;6.69;100.00
73171;BME280;61381;50.118;19.962;2022-11-15T22:30:22;97887.59;;;6.82;100.00
73171;BME280;61381;50.118;19.962;2022-11-15T22:35:24;97883.69;;;6.69;100.00
73171;BME280;61381;50.118;19.962;2022-11-15T22:40:26;97883.78;;;6.43;100.00
73171;BME280;61381;50.118;19.962;2022-11-15T22:45:27;97877.94;;;6.47;100.00
73171;BME280;61381;50.118;19.962;2022-11-15T22:50:28;97876.03;;;6.52;100.00
73171;BME280;61381;50.118;19.962;2022-11-15T22:55:31;97876.28;;;6.56;100.00
73171;BME280;61381;50.118;19.962;2022-11-15T23:00:32;97861.97;;;6.47;100.00
73171;BME280;61381;50.118;19.962;2022-11-15T23:05:33;97856.34;;;6.53;100.00
73171;BME280;61381;50.118;19.962;2022-11-15T23:10:36;97860.06;;;6.57;100.00
73171;BME280;61381;50.118;19.962;2022-11-15T23:15:37;97840.38;;;6.58;100.00
73171;BME280;61381;50.118;19.962;2022-11-15T23:20:38;97832.63;;;6.57;100.00
73171;BME280;61381;50.118;19.962;2022-11-15T23:25:40;97827.56;;;6.55;100.00
73171;BME280;61381;50.118;19.962;2022-11-15T23:30:41;97818.03;;;6.49;100.00
73171;BME280;61381;50.118;19.962;2022-11-15T23:35:52;97812.72;;;6.49;100.00
73171;BME280;61381;50.118;19.962;2022-11-15T23:40:54;97812.72;;;6.49;100.00
73171;BME280;61381;50.118;19.962;2022-11-15T23:45:55;97802.06;;;6.49;100.00
73171;BME280;61381;50.118;19.962;2022-11-15T23:50:56;97791.97;;;6.51;100.00
73171;BME280;61381;50.118;19.962;2022-11-15T23:56:01;97761.66;;;6.47;100.00
